sensor_id;sensor_type;location;lat;lon;timestamp;temperature;humidity
4697;DHT22;2362;50.780;0.292;2023-08-21T00:01:58;16.30;99.90
4697;DHT22;2362;50.780;0.292;2023-08-21T00:04:24;16.20;99.90
4697;DHT22;2362;50.780;0.292;2023-08-21T00:06:50;16.20;99.90
4697;DHT22;2362;50.780;0.292;2023-08-21T00:09:15;16.30;99.90
4697;DHT22;2362;50.780;0.292;2023-08-21T00:11:41;16.30;99.90
4697;DHT22;2362;50.780;0.292;2023-08-21T00:14:07;16.30;99.90
4697;DHT22;2362;50.780;0.292;2023-08-21T00:16:32;16.30;99.90
4697;DHT22;2362;50.780;0.292;2023-08-21T00:18:58;16.40;99.90
4697;DHT22;2362;50.780;0.292;2023-08-21T00:21:24;16.40;99.90
4697;DHT22;2362;50.780;0.292;2023-08-21T00:23:49;16.40;99.90
4697;DHT22;2362;50.780;0.292;2023-08-21T00:26:15;16.40;99.90
4697;DHT22;2362;50.780;0.292;2023-08-21T00:28:40;16.40;99.90
4697;DHT22;2362;50.780;0.292;2023-08-21T00:31:06;16.50;99.90
4697;DHT22;2362;50.780;0.292;2023-08-21T00:33:32;16.50;99.90
4697;DHT22;2362;50.780;0.292;2023-08-21T00:35:58;16.40;99.90
4697;DHT22;2362;50.780;0.292;2023-08-21T00:38:24;16.40;99.90
4697;DHT22;2362;50.780;0.292;2023-08-21T00:40:50;16.50;99.90
4697;DHT22;2362;50.780;0.292;2023-08-21T00:43:16;16.50;99.90
4697;DHT22;2362;50.780;0.292;2023-08-21T00:45:44;16.40;99.90
4697;DHT22;2362;50.780;0.292;2023-08-21T00:48:10;16.40;99.90
4697;DHT22;2362;50.780;0.292;2023-08-21T00:50:37;16.30;99.90
4697;DHT22;2362;50.780;0.292;2023-08-21T00:53:04;16.40;99.90
4697;DHT22;2362;50.780;0.292;2023-08-21T00:55:31;16.40;99.90
4697;DHT22;2362;50.780;0.292;2023-08-21T00:57:58;16.40;99.90
4697;DHT22;2362;50.780;0.292;2023-08-21T01:00:25;16.50;99.90
4697;DHT22;2362;50.780;0.292;2023-08-21T01:02:51;16.60;99.90
4697;DHT22;2362;50.780;0.292;2023-08-21T01:05:18;16.70;99.90
4697;DHT22;2362;50.780;0.292;2023-08-21T01:08:03;16.70;99.90
4697;DHT22;2362;50.780;0.292;2023-08-21T01:14:00;16.80;99.90
4697;DHT22;2362;50.780;0.292;2023-08-21T01:16:05;16.70;99.90
4697;DHT22;2362;50.780;0.292;2023-08-21T01:18:32;16.70;99.90
4697;DHT22;2362;50.780;0.292;2023-08-21T01:20:58;16.70;99.90
4697;DHT22;2362;50.780;0.292;2023-08-21T01:23:35;16.70;99.90
4697;DHT22;2362;50.780;0.292;2023-08-21T01:26:01;16.70;99.90
4697;DHT22;2362;50.780;0.292;2023-08-21T01:28:27;16.70;99.90
4697;DHT22;2362;50.780;0.292;2023-08-21T01:31:00;16.70;99.90
4697;DHT22;2362;50.780;0.292;2023-08-21T01:33:29;16.70;99.90
4697;DHT22;2362;50.780;0.292;2023-08-21T01:35:57;16.70;99.90
4697;DHT22;2362;50.780;0.292;2023-08-21T01:38:24;16.80;99.90
4697;DHT22;2362;50.780;0.292;2023-08-21T01:40:50;16.80;99.90
4697;DHT22;2362;50.780;0.292;2023-08-21T01:43:15;16.80;99.90
4697;DHT22;2362;50.780;0.292;2023-08-21T01:45:41;16.80;99.90
4697;DHT22;2362;50.780;0.292;2023-08-21T01:48:07;16.80;99.90
4697;DHT22;2362;50.780;0.292;2023-08-21T01:50:32;16.70;99.90
4697;DHT22;2362;50.780;0.292;2023-08-21T01:52:58;16.70;99.90
4697;DHT22;2362;50.780;0.292;2023-08-21T01:55:24;16.60;99.90
4697;DHT22;2362;50.780;0.292;2023-08-21T01:57:49;16.60;99.90
4697;DHT22;2362;50.780;0.292;2023-08-21T02:00:15;16.50;99.90
4697;DHT22;2362;50.780;0.292;2023-08-21T02:02:41;16.50;99.90
4697;DHT22;2362;50.780;0.292;2023-08-21T02:05:06;16.40;99.90
4697;DHT22;2362;50.780;0.292;2023-08-21T02:07:32;16.30;99.90
4697;DHT22;2362;50.780;0.292;2023-08-21T02:09:58;16.30;99.90
4697;DHT22;2362;50.780;0.292;2023-08-21T02:12:23;16.20;99.90
4697;DHT22;2362;50.780;0.292;2023-08-21T02:14:49;16.20;99.90
4697;DHT22;2362;50.780;0.292;2023-08-21T02:17:15;16.20;99.90
4697;DHT22;2362;50.780;0.292;2023-08-21T02:19:40;16.20;99.90
4697;DHT22;2362;50.780;0.292;2023-08-21T02:22:06;16.20;99.90
4697;DHT22;2362;50.780;0.292;2023-08-21T02:24:32;16.10;99.90
4697;DHT22;2362;50.780;0.292;2023-08-21T02:26:57;16.00;99.90
4697;DHT22;2362;50.780;0.292;2023-08-21T02:29:23;16.00;99.90
4697;DHT22;2362;50.780;0.292;2023-08-21T02:31:48;16.00;99.90
4697;DHT22;2362;50.780;0.292;2023-08-21T02:34:14;16.00;99.90
4697;DHT22;2362;50.780;0.292;2023-08-21T02:36:40;16.00;99.90
4697;DHT22;2362;50.780;0.292;2023-08-21T02:39:05;16.00;99.90
4697;DHT22;2362;50.780;0.292;2023-08-21T02:41:31;16.00;99.90
4697;DHT22;2362;50.780;0.292;2023-08-21T02:43:56;16.00;99.90
4697;DHT22;2362;50.780;0.292;2023-08-21T02:46:22;16.00;99.90
4697;DHT22;2362;50.780;0.292;2023-08-21T02:48:48;15.90;99.90
4697;DHT22;2362;50.780;0.292;2023-08-21T02:51:13;15.80;99.90
4697;DHT22;2362;50.780;0.292;2023-08-21T02:53:39;15.80;99.90
4697;DHT22;2362;50.780;0.292;2023-08-21T02:56:04;15.80;99.90
4697;DHT22;2362;50.780;0.292;2023-08-21T02:58:30;15.80;99.90
4697;DHT22;2362;50.780;0.292;2023-08-21T03:00:56;15.80;99.90
4697;DHT22;2362;50.780;0.292;2023-08-21T03:03:22;15.90;99.90
4697;DHT22;2362;50.780;0.292;2023-08-21T03:05:47;15.90;99.90
4697;DHT22;2362;50.780;0.292;2023-08-21T03:08:13;15.90;99.90
4697;DHT22;2362;50.780;0.292;2023-08-21T03:10:39;15.90;99.90
4697;DHT22;2362;50.780;0.292;2023-08-21T03:13:04;15.90;99.90
4697;DHT22;2362;50.780;0.292;2023-08-21T03:15:30;15.90;99.90
4697;DHT22;2362;50.780;0.292;2023-08-21T03:17:56;15.90;99.90
4697;DHT22;2362;50.780;0.292;2023-08-21T03:20:22;15.90;99.90
4697;DHT22;2362;50.780;0.292;2023-08-21T03:22:47;15.90;99.90
4697;DHT22;2362;50.780;0.292;2023-08-21T03:25:13;15.90;99.90
4697;DHT22;2362;50.780;0.292;2023-08-21T03:27:39;15.90;99.90
4697;DHT22;2362;50.780;0.292;2023-08-21T03:30:08;15.90;99.90
4697;DHT22;2362;50.780;0.292;2023-08-21T03:32:34;15.90;99.90
4697;DHT22;2362;50.780;0.292;2023-08-21T03:34:59;15.90;99.90
4697;DHT22;2362;50.780;0.292;2023-08-21T03:37:25;15.90;99.90
4697;DHT22;2362;50.780;0.292;2023-08-21T03:39:51;15.90;99.90
4697;DHT22;2362;50.780;0.292;2023-08-21T03:42:16;15.90;99.90
4697;DHT22;2362;50.780;0.292;2023-08-21T03:44:42;15.80;99.90
4697;DHT22;2362;50.780;0.292;2023-08-21T03:47:08;15.80;99.90
4697;DHT22;2362;50.780;0.292;2023-08-21T03:49:34;15.80;99.90
4697;DHT22;2362;50.780;0.292;2023-08-21T03:51:59;15.80;99.90
4697;DHT22;2362;50.780;0.292;2023-08-21T03:54:25;15.80;99.90
4697;DHT22;2362;50.780;0.292;2023-08-21T03:56:50;15.70;99.90
4697;DHT22;2362;50.780;0.292;2023-08-21T03:59:16;15.70;99.90
4697;DHT22;2362;50.780;0.292;2023-08-21T04:01:42;15.60;99.90
4697;DHT22;2362;50.780;0.292;2023-08-21T04:04:07;15.50;99.90
4697;DHT22;2362;50.780;0.292;2023-08-21T04:06:33;15.50;99.90
4697;DHT22;2362;50.780;0.292;2023-08-21T04:08:58;15.50;99.90
4697;DHT22;2362;50.780;0.292;2023-08-21T04:11:24;15.50;99.90
4697;DHT22;2362;50.780;0.292;2023-08-21T04:13:50;15.50;99.90
4697;DHT22;2362;50.780;0.292;2023-08-21T04:16:15;15.40;99.90
4697;DHT22;2362;50.780;0.292;2023-08-21T04:18:43;15.40;99.90
4697;DHT22;2362;50.780;0.292;2023-08-21T04:21:09;15.40;99.90
4697;DHT22;2362;50.780;0.292;2023-08-21T04:23:35;15.40;99.90
4697;DHT22;2362;50.780;0.292;2023-08-21T04:26:04;15.30;99.90
4697;DHT22;2362;50.780;0.292;2023-08-21T04:28:31;15.30;99.90
4697;DHT22;2362;50.780;0.292;2023-08-21T04:30:57;15.20;99.90
4697;DHT22;2362;50.780;0.292;2023-08-21T04:33:27;15.10;99.90
4697;DHT22;2362;50.780;0.292;2023-08-21T04:35:53;15.10;99.90
4697;DHT22;2362;50.780;0.292;2023-08-21T04:38:19;15.00;99.90
4697;DHT22;2362;50.780;0.292;2023-08-21T04:40:44;15.00;99.90
4697;DHT22;2362;50.780;0.292;2023-08-21T04:43:10;15.00;99.90
4697;DHT22;2362;50.780;0.292;2023-08-21T04:45:37;14.90;99.90
4697;DHT22;2362;50.780;0.292;2023-08-21T04:48:07;14.80;99.90
4697;DHT22;2362;50.780;0.292;2023-08-21T04:50:32;14.80;99.90
4697;DHT22;2362;50.780;0.292;2023-08-21T04:52:58;14.80;99.90
4697;DHT22;2362;50.780;0.292;2023-08-21T04:55:24;14.80;99.90
4697;DHT22;2362;50.780;0.292;2023-08-21T04:57:49;14.90;99.90
4697;DHT22;2362;50.780;0.292;2023-08-21T05:00:15;14.90;99.90
4697;DHT22;2362;50.780;0.292;2023-08-21T05:02:41;14.90;99.90
4697;DHT22;2362;50.780;0.292;2023-08-21T05:05:07;14.90;99.90
4697;DHT22;2362;50.780;0.292;2023-08-21T05:07:34;14.90;99.90
4697;DHT22;2362;50.780;0.292;2023-08-21T05:10:00;14.90;99.90
4697;DHT22;2362;50.780;0.292;2023-08-21T05:12:26;14.90;99.90
4697;DHT22;2362;50.780;0.292;2023-08-21T05:14:52;14.90;99.90
4697;DHT22;2362;50.780;0.292;2023-08-21T05:17:17;14.90;99.90
4697;DHT22;2362;50.780;0.292;2023-08-21T05:19:43;14.90;99.90
4697;DHT22;2362;50.780;0.292;2023-08-21T05:22:08;15.00;99.90
4697;DHT22;2362;50.780;0.292;2023-08-21T05:24:34;15.10;99.90
4697;DHT22;2362;50.780;0.292;2023-08-21T05:27:00;15.20;99.90
4697;DHT22;2362;50.780;0.292;2023-08-21T05:29:25;15.20;99.90
4697;DHT22;2362;50.780;0.292;2023-08-21T05:31:51;15.20;99.90
4697;DHT22;2362;50.780;0.292;2023-08-21T05:34:17;15.30;99.90
4697;DHT22;2362;50.780;0.292;2023-08-21T05:36:42;15.30;99.90
4697;DHT22;2362;50.780;0.292;2023-08-21T05:39:08;15.40;99.90
4697;DHT22;2362;50.780;0.292;2023-08-21T05:41:34;15.40;99.90
4697;DHT22;2362;50.780;0.292;2023-08-21T05:43:59;15.40;99.90
4697;DHT22;2362;50.780;0.292;2023-08-21T05:46:25;15.40;99.90
4697;DHT22;2362;50.780;0.292;2023-08-21T05:48:50;15.40;99.90
4697;DHT22;2362;50.780;0.292;2023-08-21T05:51:16;15.60;99.90
4697;DHT22;2362;50.780;0.292;2023-08-21T05:53:42;15.60;99.90
4697;DHT22;2362;50.780;0.292;2023-08-21T05:56:07;15.70;99.90
4697;DHT22;2362;50.780;0.292;2023-08-21T05:58:33;15.70;99.90
4697;DHT22;2362;50.780;0.292;2023-08-21T06:00:58;15.80;99.90
4697;DHT22;2362;50.780;0.292;2023-08-21T06:03:24;15.80;99.90
4697;DHT22;2362;50.780;0.292;2023-08-21T06:05:50;15.90;99.90
4697;DHT22;2362;50.780;0.292;2023-08-21T06:08:16;16.00;99.90
4697;DHT22;2362;50.780;0.292;2023-08-21T06:10:41;16.00;99.90
4697;DHT22;2362;50.780;0.292;2023-08-21T06:13:07;16.00;99.90
4697;DHT22;2362;50.780;0.292;2023-08-21T06:15:33;16.10;99.90
4697;DHT22;2362;50.780;0.292;2023-08-21T06:17:59;16.20;99.90
4697;DHT22;2362;50.780;0.292;2023-08-21T06:20:25;16.30;99.90
4697;DHT22;2362;50.780;0.292;2023-08-21T06:22:51;16.40;99.90
4697;DHT22;2362;50.780;0.292;2023-08-21T06:25:17;16.40;99.90
4697;DHT22;2362;50.780;0.292;2023-08-21T06:27:44;16.40;99.90
4697;DHT22;2362;50.780;0.292;2023-08-21T06:30:10;16.50;99.90
4697;DHT22;2362;50.780;0.292;2023-08-21T06:32:36;16.60;99.90
4697;DHT22;2362;50.780;0.292;2023-08-21T06:35:02;16.70;99.90
4697;DHT22;2362;50.780;0.292;2023-08-21T06:37:27;16.80;99.90
4697;DHT22;2362;50.780;0.292;2023-08-21T06:39:53;16.90;99.90
4697;DHT22;2362;50.780;0.292;2023-08-21T06:42:18;16.90;99.90
4697;DHT22;2362;50.780;0.292;2023-08-21T06:44:44;17.00;99.90
4697;DHT22;2362;50.780;0.292;2023-08-21T06:47:10;17.10;99.90
4697;DHT22;2362;50.780;0.292;2023-08-21T06:49:35;17.20;99.90
4697;DHT22;2362;50.780;0.292;2023-08-21T06:52:01;17.20;99.90
4697;DHT22;2362;50.780;0.292;2023-08-21T06:54:28;17.30;99.90
4697;DHT22;2362;50.780;0.292;2023-08-21T06:56:54;17.40;99.90
4697;DHT22;2362;50.780;0.292;2023-08-21T06:59:19;17.40;99.90
4697;DHT22;2362;50.780;0.292;2023-08-21T07:01:45;17.50;99.90
4697;DHT22;2362;50.780;0.292;2023-08-21T07:04:10;17.50;99.90
4697;DHT22;2362;50.780;0.292;2023-08-21T07:06:36;17.60;99.90
4697;DHT22;2362;50.780;0.292;2023-08-21T07:09:02;17.60;99.90
4697;DHT22;2362;50.780;0.292;2023-08-21T07:11:27;17.50;99.90
4697;DHT22;2362;50.780;0.292;2023-08-21T07:13:53;17.50;99.90
4697;DHT22;2362;50.780;0.292;2023-08-21T07:16:19;17.60;99.90
4697;DHT22;2362;50.780;0.292;2023-08-21T07:18:44;17.80;99.90
4697;DHT22;2362;50.780;0.292;2023-08-21T07:21:10;17.80;99.90
4697;DHT22;2362;50.780;0.292;2023-08-21T07:23:35;17.80;99.90
4697;DHT22;2362;50.780;0.292;2023-08-21T07:26:01;17.90;99.90
4697;DHT22;2362;50.780;0.292;2023-08-21T07:28:27;17.90;99.90
4697;DHT22;2362;50.780;0.292;2023-08-21T07:30:57;18.00;99.90
4697;DHT22;2362;50.780;0.292;2023-08-21T07:33:26;18.20;99.90
4697;DHT22;2362;50.780;0.292;2023-08-21T07:36:03;18.40;99.90
4697;DHT22;2362;50.780;0.292;2023-08-21T07:38:30;18.40;99.90
4697;DHT22;2362;50.780;0.292;2023-08-21T07:41:09;18.30;99.90
4697;DHT22;2362;50.780;0.292;2023-08-21T07:43:42;18.20;99.90
4697;DHT22;2362;50.780;0.292;2023-08-21T07:46:09;18.30;99.90
4697;DHT22;2362;50.780;0.292;2023-08-21T07:48:38;18.40;99.90
4697;DHT22;2362;50.780;0.292;2023-08-21T07:51:04;18.50;99.90
4697;DHT22;2362;50.780;0.292;2023-08-21T07:53:30;18.50;99.90
4697;DHT22;2362;50.780;0.292;2023-08-21T07:55:57;18.50;99.90
4697;DHT22;2362;50.780;0.292;2023-08-21T07:58:23;18.60;99.90
4697;DHT22;2362;50.780;0.292;2023-08-21T08:00:49;18.80;99.90
4697;DHT22;2362;50.780;0.292;2023-08-21T08:03:14;18.90;99.90
4697;DHT22;2362;50.780;0.292;2023-08-21T08:05:41;19.00;99.90
4697;DHT22;2362;50.780;0.292;2023-08-21T08:08:10;19.30;99.90
4697;DHT22;2362;50.780;0.292;2023-08-21T08:10:39;19.30;99.90
4697;DHT22;2362;50.780;0.292;2023-08-21T08:13:05;19.50;99.90
4697;DHT22;2362;50.780;0.292;2023-08-21T08:15:31;19.60;99.90
4697;DHT22;2362;50.780;0.292;2023-08-21T08:17:57;19.70;99.90
4697;DHT22;2362;50.780;0.292;2023-08-21T08:20:23;19.70;99.90
4697;DHT22;2362;50.780;0.292;2023-08-21T08:22:49;19.60;99.90
4697;DHT22;2362;50.780;0.292;2023-08-21T08:25:14;19.50;99.90
4697;DHT22;2362;50.780;0.292;2023-08-21T08:27:41;19.40;99.90
4697;DHT22;2362;50.780;0.292;2023-08-21T08:30:07;19.80;99.90
4697;DHT22;2362;50.780;0.292;2023-08-21T08:32:34;19.90;99.90
4697;DHT22;2362;50.780;0.292;2023-08-21T08:34:59;19.90;99.90
4697;DHT22;2362;50.780;0.292;2023-08-21T08:37:25;20.10;99.90
4697;DHT22;2362;50.780;0.292;2023-08-21T08:39:50;20.30;99.90
4697;DHT22;2362;50.780;0.292;2023-08-21T08:42:16;20.50;99.90
4697;DHT22;2362;50.780;0.292;2023-08-21T08:44:43;20.50;99.90
4697;DHT22;2362;50.780;0.292;2023-08-21T08:47:10;20.70;99.90
4697;DHT22;2362;50.780;0.292;2023-08-21T08:49:37;20.60;99.90
4697;DHT22;2362;50.780;0.292;2023-08-21T08:52:03;20.80;99.90
4697;DHT22;2362;50.780;0.292;2023-08-21T08:54:30;21.20;99.90
4697;DHT22;2362;50.780;0.292;2023-08-21T08:56:56;21.70;99.90
4697;DHT22;2362;50.780;0.292;2023-08-21T08:59:22;22.10;99.90
4697;DHT22;2362;50.780;0.292;2023-08-21T09:01:48;22.00;99.90
4697;DHT22;2362;50.780;0.292;2023-08-21T09:04:13;21.80;99.90
4697;DHT22;2362;50.780;0.292;2023-08-21T09:06:39;21.40;99.90
4697;DHT22;2362;50.780;0.292;2023-08-21T09:09:07;21.40;99.90
4697;DHT22;2362;50.780;0.292;2023-08-21T09:11:34;21.50;99.90
4697;DHT22;2362;50.780;0.292;2023-08-21T09:14:00;21.60;99.90
4697;DHT22;2362;50.780;0.292;2023-08-21T09:16:26;21.40;99.90
4697;DHT22;2362;50.780;0.292;2023-08-21T09:18:58;21.20;99.90
4697;DHT22;2362;50.780;0.292;2023-08-21T09:21:25;21.10;99.90
4697;DHT22;2362;50.780;0.292;2023-08-21T09:23:57;20.90;99.90
4697;DHT22;2362;50.780;0.292;2023-08-21T09:26:24;21.00;99.90
4697;DHT22;2362;50.780;0.292;2023-08-21T09:28:51;21.30;99.90
4697;DHT22;2362;50.780;0.292;2023-08-21T09:31:30;21.20;99.90
4697;DHT22;2362;50.780;0.292;2023-08-21T09:33:57;21.20;99.90
4697;DHT22;2362;50.780;0.292;2023-08-21T09:36:23;21.10;99.90
4697;DHT22;2362;50.780;0.292;2023-08-21T09:38:50;21.00;99.90
4697;DHT22;2362;50.780;0.292;2023-08-21T09:41:20;21.00;99.90
4697;DHT22;2362;50.780;0.292;2023-08-21T09:43:45;21.20;99.90
4697;DHT22;2362;50.780;0.292;2023-08-21T09:46:15;21.40;99.90
4697;DHT22;2362;50.780;0.292;2023-08-21T09:48:41;21.50;99.90
4697;DHT22;2362;50.780;0.292;2023-08-21T09:51:09;21.60;99.90
4697;DHT22;2362;50.780;0.292;2023-08-21T09:53:35;21.60;99.90
4697;DHT22;2362;50.780;0.292;2023-08-21T09:56:01;21.40;99.90
4697;DHT22;2362;50.780;0.292;2023-08-21T09:58:28;21.10;99.90
4697;DHT22;2362;50.780;0.292;2023-08-21T10:00:57;20.90;99.90
4697;DHT22;2362;50.780;0.292;2023-08-21T10:03:23;20.90;99.90
4697;DHT22;2362;50.780;0.292;2023-08-21T10:05:50;20.90;99.90
4697;DHT22;2362;50.780;0.292;2023-08-21T10:08:20;20.90;99.90
4697;DHT22;2362;50.780;0.292;2023-08-21T10:10:47;21.00;99.90
4697;DHT22;2362;50.780;0.292;2023-08-21T10:13:13;21.30;99.90
4697;DHT22;2362;50.780;0.292;2023-08-21T10:15:39;21.40;99.90
4697;DHT22;2362;50.780;0.292;2023-08-21T10:18:21;21.50;99.90
4697;DHT22;2362;50.780;0.292;2023-08-21T10:20:49;21.50;99.90
4697;DHT22;2362;50.780;0.292;2023-08-21T10:23:27;21.50;99.90
4697;DHT22;2362;50.780;0.292;2023-08-21T10:26:01;21.40;99.90
4697;DHT22;2362;50.780;0.292;2023-08-21T10:34:03;21.30;99.90
4697;DHT22;2362;50.780;0.292;2023-08-21T10:39:23;21.40;99.90
4697;DHT22;2362;50.780;0.292;2023-08-21T10:44:37;21.30;99.90
4697;DHT22;2362;50.780;0.292;2023-08-21T10:47:18;21.20;99.90
4697;DHT22;2362;50.780;0.292;2023-08-21T10:49:45;21.20;99.90
4697;DHT22;2362;50.780;0.292;2023-08-21T10:52:11;21.40;99.90
4697;DHT22;2362;50.780;0.292;2023-08-21T10:54:57;21.60;99.90
4697;DHT22;2362;50.780;0.292;2023-08-21T10:57:24;22.10;99.90
4697;DHT22;2362;50.780;0.292;2023-08-21T11:00:04;22.10;99.90
4697;DHT22;2362;50.780;0.292;2023-08-21T11:02:31;22.40;99.90
4697;DHT22;2362;50.780;0.292;2023-08-21T11:04:58;22.40;99.90
4697;DHT22;2362;50.780;0.292;2023-08-21T11:07:24;22.30;99.90
4697;DHT22;2362;50.780;0.292;2023-08-21T11:09:51;22.10;99.90
4697;DHT22;2362;50.780;0.292;2023-08-21T11:12:18;22.00;99.90
4697;DHT22;2362;50.780;0.292;2023-08-21T11:14:45;21.70;99.90
4697;DHT22;2362;50.780;0.292;2023-08-21T11:17:11;21.70;99.90
4697;DHT22;2362;50.780;0.292;2023-08-21T11:19:37;21.60;99.90
4697;DHT22;2362;50.780;0.292;2023-08-21T11:22:04;21.60;99.90
4697;DHT22;2362;50.780;0.292;2023-08-21T11:27:10;22.00;99.90
4697;DHT22;2362;50.780;0.292;2023-08-21T11:29:49;22.30;99.90
4697;DHT22;2362;50.780;0.292;2023-08-21T11:32:17;22.50;99.90
4697;DHT22;2362;50.780;0.292;2023-08-21T11:34:48;22.60;99.90
4697;DHT22;2362;50.780;0.292;2023-08-21T11:37:15;22.70;99.90
4697;DHT22;2362;50.780;0.292;2023-08-21T11:39:47;22.90;99.90
4697;DHT22;2362;50.780;0.292;2023-08-21T11:42:13;23.00;99.90
4697;DHT22;2362;50.780;0.292;2023-08-21T11:44:44;23.10;99.90
4697;DHT22;2362;50.780;0.292;2023-08-21T11:47:10;23.20;99.90
4697;DHT22;2362;50.780;0.292;2023-08-21T11:49:37;23.20;99.90
4697;DHT22;2362;50.780;0.292;2023-08-21T11:52:04;23.00;99.90
4697;DHT22;2362;50.780;0.292;2023-08-21T11:54:38;22.80;99.90
4697;DHT22;2362;50.780;0.292;2023-08-21T11:57:12;22.60;99.90
4697;DHT22;2362;50.780;0.292;2023-08-21T11:59:38;22.60;99.90
4697;DHT22;2362;50.780;0.292;2023-08-21T12:02:14;22.50;99.90
4697;DHT22;2362;50.780;0.292;2023-08-21T12:04:41;22.50;99.90
4697;DHT22;2362;50.780;0.292;2023-08-21T12:07:07;22.40;99.90
4697;DHT22;2362;50.780;0.292;2023-08-21T12:09:33;22.10;99.90
4697;DHT22;2362;50.780;0.292;2023-08-21T12:11:59;22.00;99.90
4697;DHT22;2362;50.780;0.292;2023-08-21T12:14:25;22.00;99.90
4697;DHT22;2362;50.780;0.292;2023-08-21T12:16:50;21.90;99.90
4697;DHT22;2362;50.780;0.292;2023-08-21T12:19:16;21.90;99.90
4697;DHT22;2362;50.780;0.292;2023-08-21T12:21:42;21.90;99.90
4697;DHT22;2362;50.780;0.292;2023-08-21T12:24:08;21.70;99.90
4697;DHT22;2362;50.780;0.292;2023-08-21T12:26:34;21.50;99.90
4697;DHT22;2362;50.780;0.292;2023-08-21T12:29:00;21.20;99.90
4697;DHT22;2362;50.780;0.292;2023-08-21T12:31:26;20.90;99.90
4697;DHT22;2362;50.780;0.292;2023-08-21T12:33:51;21.00;99.90
4697;DHT22;2362;50.780;0.292;2023-08-21T12:36:17;21.00;99.90
4697;DHT22;2362;50.780;0.292;2023-08-21T12:38:43;21.10;99.90
4697;DHT22;2362;50.780;0.292;2023-08-21T12:41:08;21.20;99.90
4697;DHT22;2362;50.780;0.292;2023-08-21T12:43:34;21.20;99.90
4697;DHT22;2362;50.780;0.292;2023-08-21T12:45:59;21.20;99.90
4697;DHT22;2362;50.780;0.292;2023-08-21T12:48:25;21.30;99.90
4697;DHT22;2362;50.780;0.292;2023-08-21T12:51:06;21.30;99.90
4697;DHT22;2362;50.780;0.292;2023-08-21T12:53:51;21.30;99.90
4697;DHT22;2362;50.780;0.292;2023-08-21T12:56:37;21.40;99.90
4697;DHT22;2362;50.780;0.292;2023-08-21T12:59:22;21.40;99.90
4697;DHT22;2362;50.780;0.292;2023-08-21T13:01:48;21.50;99.90
4697;DHT22;2362;50.780;0.292;2023-08-21T13:04:17;21.50;99.90
4697;DHT22;2362;50.780;0.292;2023-08-21T13:07:04;21.50;99.90
4697;DHT22;2362;50.780;0.292;2023-08-21T13:09:47;21.50;99.90
4697;DHT22;2362;50.780;0.292;2023-08-21T13:12:26;21.40;99.90
4697;DHT22;2362;50.780;0.292;2023-08-21T13:14:51;21.40;99.90
4697;DHT22;2362;50.780;0.292;2023-08-21T13:17:17;21.30;99.90
4697;DHT22;2362;50.780;0.292;2023-08-21T13:19:43;21.30;99.90
4697;DHT22;2362;50.780;0.292;2023-08-21T13:22:09;21.40;99.90
4697;DHT22;2362;50.780;0.292;2023-08-21T13:24:34;21.30;99.90
4697;DHT22;2362;50.780;0.292;2023-08-21T13:27:00;21.30;99.90
4697;DHT22;2362;50.780;0.292;2023-08-21T13:29:26;21.40;99.90
4697;DHT22;2362;50.780;0.292;2023-08-21T13:31:51;21.20;99.90
4697;DHT22;2362;50.780;0.292;2023-08-21T13:34:17;20.90;99.90
4697;DHT22;2362;50.780;0.292;2023-08-21T13:36:43;20.90;99.90
4697;DHT22;2362;50.780;0.292;2023-08-21T13:39:09;21.00;99.90
4697;DHT22;2362;50.780;0.292;2023-08-21T13:41:36;21.20;99.90
4697;DHT22;2362;50.780;0.292;2023-08-21T13:44:02;21.10;99.90
4697;DHT22;2362;50.780;0.292;2023-08-21T13:46:28;21.10;99.90
4697;DHT22;2362;50.780;0.292;2023-08-21T13:48:54;21.10;99.90
4697;DHT22;2362;50.780;0.292;2023-08-21T13:51:20;21.10;99.90
4697;DHT22;2362;50.780;0.292;2023-08-21T13:53:45;21.10;99.90
4697;DHT22;2362;50.780;0.292;2023-08-21T13:56:11;21.00;99.90
4697;DHT22;2362;50.780;0.292;2023-08-21T13:58:36;21.10;99.90
4697;DHT22;2362;50.780;0.292;2023-08-21T14:01:02;21.20;99.90
4697;DHT22;2362;50.780;0.292;2023-08-21T14:03:28;21.00;99.90
4697;DHT22;2362;50.780;0.292;2023-08-21T14:05:54;20.90;99.90
4697;DHT22;2362;50.780;0.292;2023-08-21T14:08:19;20.90;99.90
4697;DHT22;2362;50.780;0.292;2023-08-21T14:10:45;20.90;99.90
4697;DHT22;2362;50.780;0.292;2023-08-21T14:13:11;20.90;99.90
4697;DHT22;2362;50.780;0.292;2023-08-21T14:15:37;20.90;99.90
4697;DHT22;2362;50.780;0.292;2023-08-21T14:18:03;20.90;99.90
4697;DHT22;2362;50.780;0.292;2023-08-21T14:20:30;20.90;99.90
4697;DHT22;2362;50.780;0.292;2023-08-21T14:22:56;20.90;99.90
4697;DHT22;2362;50.780;0.292;2023-08-21T14:25:21;20.90;99.90
4697;DHT22;2362;50.780;0.292;2023-08-21T14:27:48;20.90;99.90
4697;DHT22;2362;50.780;0.292;2023-08-21T14:30:14;20.90;99.90
4697;DHT22;2362;50.780;0.292;2023-08-21T14:32:40;20.80;99.90
4697;DHT22;2362;50.780;0.292;2023-08-21T14:35:07;20.90;99.90
4697;DHT22;2362;50.780;0.292;2023-08-21T14:37:34;20.90;99.90
4697;DHT22;2362;50.780;0.292;2023-08-21T14:40:00;20.90;99.90
4697;DHT22;2362;50.780;0.292;2023-08-21T14:42:25;20.90;99.90
4697;DHT22;2362;50.780;0.292;2023-08-21T14:44:51;20.90;99.90
4697;DHT22;2362;50.780;0.292;2023-08-21T14:47:16;20.90;99.90
4697;DHT22;2362;50.780;0.292;2023-08-21T14:49:42;20.90;99.90
4697;DHT22;2362;50.780;0.292;2023-08-21T14:52:08;20.90;99.90
4697;DHT22;2362;50.780;0.292;2023-08-21T14:54:34;20.90;99.90
4697;DHT22;2362;50.780;0.292;2023-08-21T14:57:01;20.90;99.90
4697;DHT22;2362;50.780;0.292;2023-08-21T14:59:26;20.90;99.90
4697;DHT22;2362;50.780;0.292;2023-08-21T15:01:52;20.90;99.90
4697;DHT22;2362;50.780;0.292;2023-08-21T15:04:19;20.90;99.90
4697;DHT22;2362;50.780;0.292;2023-08-21T15:06:45;20.80;99.90
4697;DHT22;2362;50.780;0.292;2023-08-21T15:09:10;20.60;99.90
4697;DHT22;2362;50.780;0.292;2023-08-21T15:11:36;20.70;99.90
4697;DHT22;2362;50.780;0.292;2023-08-21T15:14:02;20.80;99.90
4697;DHT22;2362;50.780;0.292;2023-08-21T15:16:29;20.70;99.90
4697;DHT22;2362;50.780;0.292;2023-08-21T15:18:54;20.80;99.90
4697;DHT22;2362;50.780;0.292;2023-08-21T15:21:38;20.60;99.90
4697;DHT22;2362;50.780;0.292;2023-08-21T15:24:04;20.50;99.90
4697;DHT22;2362;50.780;0.292;2023-08-21T15:26:31;20.30;99.90
4697;DHT22;2362;50.780;0.292;2023-08-21T15:28:57;20.20;99.90
4697;DHT22;2362;50.780;0.292;2023-08-21T15:31:23;20.20;99.90
4697;DHT22;2362;50.780;0.292;2023-08-21T15:33:48;20.20;99.90
4697;DHT22;2362;50.780;0.292;2023-08-21T15:36:14;20.20;99.90
4697;DHT22;2362;50.780;0.292;2023-08-21T15:38:40;20.20;99.90
4697;DHT22;2362;50.780;0.292;2023-08-21T15:41:05;20.10;99.90
4697;DHT22;2362;50.780;0.292;2023-08-21T15:43:33;20.00;99.90
4697;DHT22;2362;50.780;0.292;2023-08-21T15:45:59;20.10;99.90
4697;DHT22;2362;50.780;0.292;2023-08-21T15:48:24;20.10;99.90
4697;DHT22;2362;50.780;0.292;2023-08-21T15:50:50;20.10;99.90
4697;DHT22;2362;50.780;0.292;2023-08-21T15:53:16;20.10;99.90
4697;DHT22;2362;50.780;0.292;2023-08-21T15:55:41;20.10;99.90
4697;DHT22;2362;50.780;0.292;2023-08-21T15:58:07;20.20;99.90
4697;DHT22;2362;50.780;0.292;2023-08-21T16:00:33;20.00;99.90
4697;DHT22;2362;50.780;0.292;2023-08-21T16:02:59;20.00;99.90
4697;DHT22;2362;50.780;0.292;2023-08-21T16:05:24;19.90;99.90
4697;DHT22;2362;50.780;0.292;2023-08-21T16:07:50;19.90;99.90
4697;DHT22;2362;50.780;0.292;2023-08-21T16:10:16;19.80;99.90
4697;DHT22;2362;50.780;0.292;2023-08-21T16:12:41;19.80;99.90
4697;DHT22;2362;50.780;0.292;2023-08-21T16:15:07;19.70;99.90
4697;DHT22;2362;50.780;0.292;2023-08-21T16:17:33;19.90;99.90